sensor_id;sensor_type;location;lat;lon;timestamp;pressure;altitude;pressure_sealevel;temperature;humidity
75549;BME280;64133;56.002;37.208;2023-07-22T00:04:21;98376.94;;;13.22;68.98
75549;BME280;64133;56.002;37.208;2023-07-22T00:09:25;98388.02;;;13.21;68.86
75549;BME280;64133;56.002;37.208;2023-07-22T00:14:30;98388.69;;;13.23;68.89
75549;BME280;64133;56.002;37.208;2023-07-22T00:19:35;98383.05;;;13.18;68.96
75549;BME280;64133;56.002;37.208;2023-07-22T00:24:42;98381.58;;;13.07;69.29
75549;BME280;64133;56.002;37.208;2023-07-22T00:29:47;98392.48;;;13.08;69.29
75549;BME280;64133;56.002;37.208;2023-07-22T00:34:52;98398.77;;;13.07;69.45
75549;BME280;64133;56.002;37.208;2023-07-22T00:39:56;98394.63;;;13.09;69.40
75549;BME280;64133;56.002;37.208;2023-07-22T00:45:01;98396.77;;;13.01;69.62
75549;BME280;64133;56.002;37.208;2023-07-22T00:50:07;98401.91;;;13.03;69.57
75549;BME280;64133;56.002;37.208;2023-07-22T00:55:12;98397.94;;;12.95;69.84
75549;BME280;64133;56.002;37.208;2023-07-22T01:00:17;98391.00;;;12.90;69.99
75549;BME280;64133;56.002;37.208;2023-07-22T01:05:21;98398.25;;;12.88;70.30
75549;BME280;64133;56.002;37.208;2023-07-22T01:10:26;98398.43;;;12.90;70.23
75549;BME280;64133;56.002;37.208;2023-07-22T01:15:31;98400.25;;;12.86;70.34
75549;BME280;64133;56.002;37.208;2023-07-22T01:20:36;98405.85;;;12.82;70.63
75549;BME280;64133;56.002;37.208;2023-07-22T01:25:40;98411.63;;;12.82;70.78
75549;BME280;64133;56.002;37.208;2023-07-22T01:30:45;98412.95;;;12.78;70.88
75549;BME280;64133;56.002;37.208;2023-07-22T01:35:50;98418.73;;;12.77;70.99
75549;BME280;64133;56.002;37.208;2023-07-22T01:40:55;98422.51;;;12.71;71.09
75549;BME280;64133;56.002;37.208;2023-07-22T01:45:59;98421.34;;;12.61;71.43
75549;BME280;64133;56.002;37.208;2023-07-22T01:51:04;98431.59;;;12.64;71.64
75549;BME280;64133;56.002;37.208;2023-07-22T01:56:09;98424.78;;;12.45;71.82
75549;BME280;64133;56.002;37.208;2023-07-22T02:01:14;98441.81;;;12.55;71.90
75549;BME280;64133;56.002;37.208;2023-07-22T02:06:18;98433.06;;;12.54;71.90
75549;BME280;64133;56.002;37.208;2023-07-22T02:11:23;98438.36;;;12.58;71.84
75549;BME280;64133;56.002;37.208;2023-07-22T02:16:28;98438.16;;;12.52;72.12
75549;BME280;64133;56.002;37.208;2023-07-22T02:21:33;98433.20;;;12.53;72.12
75549;BME280;64133;56.002;37.208;2023-07-22T02:26:37;98443.78;;;12.57;72.17
75549;BME280;64133;56.002;37.208;2023-07-22T02:31:42;98445.47;;;12.70;72.08
75549;BME280;64133;56.002;37.208;2023-07-22T02:36:47;98444.64;;;12.70;71.95
75549;BME280;64133;56.002;37.208;2023-07-22T02:41:51;98444.66;;;12.74;71.79
75549;BME280;64133;56.002;37.208;2023-07-22T02:46:56;98456.75;;;12.85;71.61
75549;BME280;64133;56.002;37.208;2023-07-22T02:52:01;98455.27;;;12.90;71.49
75549;BME280;64133;56.002;37.208;2023-07-22T02:57:06;98468.64;;;12.97;71.42
75549;BME280;64133;56.002;37.208;2023-07-22T03:02:11;98467.00;;;12.96;71.36
75549;BME280;64133;56.002;37.208;2023-07-22T03:07:16;98458.41;;;13.10;71.11
75549;BME280;64133;56.002;37.208;2023-07-22T03:12:21;98458.78;;;13.19;70.94
75549;BME280;64133;56.002;37.208;2023-07-22T03:17:25;98460.94;;;13.40;70.40
75549;BME280;64133;56.002;37.208;2023-07-22T03:27:49;98464.08;;;13.52;70.14
75549;BME280;64133;56.002;37.208;2023-07-22T03:32:54;98463.25;;;13.64;69.80
75549;BME280;64133;56.002;37.208;2023-07-22T03:37:59;98465.72;;;13.73;69.44
75549;BME280;64133;56.002;37.208;2023-07-22T03:43:03;98471.50;;;13.81;69.22
75549;BME280;64133;56.002;37.208;2023-07-22T03:48:08;98464.06;;;13.80;69.14
75549;BME280;64133;56.002;37.208;2023-07-22T03:53:13;98471.31;;;13.82;69.00
75549;BME280;64133;56.002;37.208;2023-07-22T03:58:18;98481.19;;;14.09;68.57
75549;BME280;64133;56.002;37.208;2023-07-22T04:03:23;98491.43;;;14.20;68.42
75549;BME280;64133;56.002;37.208;2023-07-22T04:08:27;98494.17;;;14.39;68.01
75549;BME280;64133;56.002;37.208;2023-07-22T04:13:32;98490.00;;;14.45;67.92
75549;BME280;64133;56.002;37.208;2023-07-22T04:18:37;98483.64;;;14.66;67.68
75549;BME280;64133;56.002;37.208;2023-07-22T04:23:42;98480.70;;;14.88;67.02
75549;BME280;64133;56.002;37.208;2023-07-22T04:28:47;98481.19;;;14.92;67.17
75549;BME280;64133;56.002;37.208;2023-07-22T04:33:52;98487.67;;;15.16;66.45
75549;BME280;64133;56.002;37.208;2023-07-22T04:38:57;98498.56;;;15.44;65.93
75549;BME280;64133;56.002;37.208;2023-07-22T04:44:05;98489.87;;;15.31;65.86
75549;BME280;64133;56.002;37.208;2023-07-22T04:49:09;98494.16;;;15.78;65.28
75549;BME280;64133;56.002;37.208;2023-07-22T04:54:14;98493.46;;;16.14;64.51
75549;BME280;64133;56.002;37.208;2023-07-22T04:59:19;98490.68;;;16.12;63.87
75549;BME280;64133;56.002;37.208;2023-07-22T05:04:24;98499.16;;;15.77;64.78
75549;BME280;64133;56.002;37.208;2023-07-22T05:09:29;98510.60;;;16.56;64.02
75549;BME280;64133;56.002;37.208;2023-07-22T05:14:33;98504.67;;;16.65;62.96
75549;BME280;64133;56.002;37.208;2023-07-22T05:19:38;98500.73;;;16.61;62.86
75549;BME280;64133;56.002;37.208;2023-07-22T05:24:43;98503.55;;;16.89;62.41
75549;BME280;64133;56.002;37.208;2023-07-22T05:29:48;98506.16;;;16.93;61.86
75549;BME280;64133;56.002;37.208;2023-07-22T05:34:53;98509.23;;;17.54;61.30
75549;BME280;64133;56.002;37.208;2023-07-22T05:39:57;98501.40;;;17.46;60.87
75549;BME280;64133;56.002;37.208;2023-07-22T05:45:03;98495.23;;;17.56;60.76
75549;BME280;64133;56.002;37.208;2023-07-22T05:50:09;98507.52;;;17.57;60.29
75549;BME280;64133;56.002;37.208;2023-07-22T05:55:13;98502.38;;;17.88;59.84
75549;BME280;64133;56.002;37.208;2023-07-22T06:00:18;98501.61;;;17.94;59.22
75549;BME280;64133;56.002;37.208;2023-07-22T06:05:23;98502.51;;;17.90;59.16
75549;BME280;64133;56.002;37.208;2023-07-22T06:10:28;98504.45;;;18.38;58.39
75549;BME280;64133;56.002;37.208;2023-07-22T06:15:32;98509.81;;;18.44;57.68
75549;BME280;64133;56.002;37.208;2023-07-22T06:20:37;98505.28;;;18.62;57.12
75549;BME280;64133;56.002;37.208;2023-07-22T06:25:42;98509.93;;;18.88;56.85
75549;BME280;64133;56.002;37.208;2023-07-22T06:30:47;98507.56;;;18.82;56.63
75549;BME280;64133;56.002;37.208;2023-07-22T06:35:52;98512.55;;;18.99;55.62
75549;BME280;64133;56.002;37.208;2023-07-22T06:40:57;98500.84;;;19.00;55.10
75549;BME280;64133;56.002;37.208;2023-07-22T06:46:01;98504.88;;;19.13;55.38
75549;BME280;64133;56.002;37.208;2023-07-22T06:51:08;98503.20;;;19.43;54.47
75549;BME280;64133;56.002;37.208;2023-07-22T06:56:12;98500.50;;;18.68;55.38
75549;BME280;64133;56.002;37.208;2023-07-22T07:01:17;98496.12;;;19.59;53.68
75549;BME280;64133;56.002;37.208;2023-07-22T07:06:22;98509.41;;;19.83;53.75
75549;BME280;64133;56.002;37.208;2023-07-22T07:11:27;98516.30;;;19.68;54.08
75549;BME280;64133;56.002;37.208;2023-07-22T07:16:32;98503.95;;;19.67;53.32
75549;BME280;64133;56.002;37.208;2023-07-22T07:21:36;98516.30;;;19.95;52.40
75549;BME280;64133;56.002;37.208;2023-07-22T07:26:41;98498.60;;;20.07;52.88
75549;BME280;64133;56.002;37.208;2023-07-22T07:31:46;98504.95;;;20.06;52.90
75549;BME280;64133;56.002;37.208;2023-07-22T07:37:00;98490.55;;;20.20;51.84
75549;BME280;64133;56.002;37.208;2023-07-22T07:42:06;98496.71;;;20.63;50.60
75549;BME280;64133;56.002;37.208;2023-07-22T07:47:11;98497.25;;;19.94;51.51
75549;BME280;64133;56.002;37.208;2023-07-22T07:52:16;98502.54;;;19.27;52.76
75549;BME280;64133;56.002;37.208;2023-07-22T07:57:20;98511.43;;;20.14;51.10
75549;BME280;64133;56.002;37.208;2023-07-22T08:02:25;98500.93;;;18.96;52.35
75549;BME280;64133;56.002;37.208;2023-07-22T08:07:30;98497.58;;;20.37;49.87
75549;BME280;64133;56.002;37.208;2023-07-22T08:12:35;98497.63;;;20.73;48.63
75549;BME280;64133;56.002;37.208;2023-07-22T08:17:40;98502.47;;;20.67;48.73
75549;BME280;64133;56.002;37.208;2023-07-22T08:22:45;98498.33;;;20.77;48.60
75549;BME280;64133;56.002;37.208;2023-07-22T08:27:50;98508.38;;;20.60;48.86
75549;BME280;64133;56.002;37.208;2023-07-22T08:32:54;98513.04;;;20.28;49.15
75549;BME280;64133;56.002;37.208;2023-07-22T08:37:59;98511.24;;;21.48;47.00
75549;BME280;64133;56.002;37.208;2023-07-22T08:43:07;98501.19;;;21.21;47.11
75549;BME280;64133;56.002;37.208;2023-07-22T08:48:11;98510.05;;;20.76;47.76
75549;BME280;64133;56.002;37.208;2023-07-22T08:53:16;98508.41;;;21.20;47.31
75549;BME280;64133;56.002;37.208;2023-07-22T08:58:21;98514.44;;;21.09;47.02
75549;BME280;64133;56.002;37.208;2023-07-22T09:16:11;98502.53;;;23.01;43.90
75549;BME280;64133;56.002;37.208;2023-07-22T09:26:57;98524.58;;;21.70;43.49
75549;BME280;64133;56.002;37.208;2023-07-22T09:32:04;98523.00;;;22.47;43.80
75549;BME280;64133;56.002;37.208;2023-07-22T09:37:14;98509.63;;;22.40;43.32
75549;BME280;64133;56.002;37.208;2023-07-22T09:42:25;98513.41;;;22.23;43.75
75549;BME280;64133;56.002;37.208;2023-07-22T09:53:20;98506.50;;;22.00;43.23
75549;BME280;64133;56.002;37.208;2023-07-22T09:58:25;98523.34;;;22.41;42.76
75549;BME280;64133;56.002;37.208;2023-07-22T10:03:30;98528.50;;;21.43;44.54
75549;BME280;64133;56.002;37.208;2023-07-22T10:08:35;98539.66;;;21.80;43.99
75549;BME280;64133;56.002;37.208;2023-07-22T10:13:40;98515.98;;;21.62;43.59
75549;BME280;64133;56.002;37.208;2023-07-22T10:18:45;98533.77;;;20.95;44.68
75549;BME280;64133;56.002;37.208;2023-07-22T10:23:50;98534.72;;;20.85;44.56
75549;BME280;64133;56.002;37.208;2023-07-22T10:28:55;98549.36;;;21.50;43.65
75549;BME280;64133;56.002;37.208;2023-07-22T10:34:00;98529.69;;;22.83;41.65
75549;BME280;64133;56.002;37.208;2023-07-22T10:39:08;98535.58;;;22.83;41.50
75549;BME280;64133;56.002;37.208;2023-07-22T10:44:10;98535.07;;;21.47;43.21
75549;BME280;64133;56.002;37.208;2023-07-22T10:55:03;98537.03;;;21.20;42.64
75549;BME280;64133;56.002;37.208;2023-07-22T11:00:09;98546.23;;;20.92;43.55
75549;BME280;64133;56.002;37.208;2023-07-22T11:05:17;98541.98;;;21.00;43.92
75549;BME280;64133;56.002;37.208;2023-07-22T11:10:21;98488.95;;;20.48;44.17
75549;BME280;64133;56.002;37.208;2023-07-22T11:20:40;98551.98;;;20.73;44.48
75549;BME280;64133;56.002;37.208;2023-07-22T11:25:45;98553.02;;;22.03;42.33
75549;BME280;64133;56.002;37.208;2023-07-22T11:30:50;98546.64;;;21.41;43.46
75549;BME280;64133;56.002;37.208;2023-07-22T11:35:55;98549.58;;;21.48;43.60
75549;BME280;64133;56.002;37.208;2023-07-22T11:41:01;98548.83;;;21.50;43.26
75549;BME280;64133;56.002;37.208;2023-07-22T11:46:06;98557.65;;;21.42;42.98
75549;BME280;64133;56.002;37.208;2023-07-22T11:51:11;98562.88;;;21.23;43.40
75549;BME280;64133;56.002;37.208;2023-07-22T11:56:21;98564.85;;;21.03;43.81
75549;BME280;64133;56.002;37.208;2023-07-22T12:01:28;98575.98;;;20.93;44.07
75549;BME280;64133;56.002;37.208;2023-07-22T12:06:30;98593.63;;;20.29;45.08
75549;BME280;64133;56.002;37.208;2023-07-22T12:11:35;98589.16;;;19.36;46.43
75549;BME280;64133;56.002;37.208;2023-07-22T12:16:40;98584.30;;;19.22;47.23
75549;BME280;64133;56.002;37.208;2023-07-22T12:21:57;98575.19;;;19.64;45.59
75549;BME280;64133;56.002;37.208;2023-07-22T12:27:04;98570.28;;;19.94;44.92
75549;BME280;64133;56.002;37.208;2023-07-22T12:38:35;98565.78;;;20.70;43.14
75549;BME280;64133;56.002;37.208;2023-07-22T12:55:21;98547.41;;;22.04;42.82
75549;BME280;64133;56.002;37.208;2023-07-22T13:01:04;98542.73;;;22.25;42.65
75549;BME280;64133;56.002;37.208;2023-07-22T13:06:14;98542.86;;;21.55;43.92
75549;BME280;64133;56.002;37.208;2023-07-22T13:11:19;98547.78;;;20.68;45.33
75549;BME280;64133;56.002;37.208;2023-07-22T13:16:28;98535.17;;;20.75;45.27
75549;BME280;64133;56.002;37.208;2023-07-22T13:21:33;98552.05;;;20.82;45.60
75549;BME280;64133;56.002;37.208;2023-07-22T13:54:35;98494.58;;;23.15;40.78
75549;BME280;64133;56.002;37.208;2023-07-22T13:59:42;98491.50;;;23.42;41.09
75549;BME280;64133;56.002;37.208;2023-07-22T14:04:49;98488.56;;;23.31;41.05
75549;BME280;64133;56.002;37.208;2023-07-22T14:09:54;98492.35;;;23.33;40.84
75549;BME280;64133;56.002;37.208;2023-07-22T14:15:27;98488.03;;;23.86;40.27
75549;BME280;64133;56.002;37.208;2023-07-22T14:20:32;98489.64;;;22.54;42.16
75549;BME280;64133;56.002;37.208;2023-07-22T14:25:39;98500.75;;;21.71;42.72
75549;BME280;64133;56.002;37.208;2023-07-22T14:36:16;98522.54;;;20.96;43.49
75549;BME280;64133;56.002;37.208;2023-07-22T14:41:21;98524.34;;;20.44;44.99
75549;BME280;64133;56.002;37.208;2023-07-22T14:46:28;98537.75;;;20.30;45.79
75549;BME280;64133;56.002;37.208;2023-07-22T14:51:34;98521.95;;;19.69;47.88
75549;BME280;64133;56.002;37.208;2023-07-22T14:56:41;98519.26;;;19.63;49.00
75549;BME280;64133;56.002;37.208;2023-07-22T15:01:52;98506.41;;;19.62;49.09
75549;BME280;64133;56.002;37.208;2023-07-22T15:06:57;98515.61;;;19.40;49.79
75549;BME280;64133;56.002;37.208;2023-07-22T15:12:02;98511.09;;;19.33;50.44
75549;BME280;64133;56.002;37.208;2023-07-22T15:17:07;98508.95;;;19.46;50.62
75549;BME280;64133;56.002;37.208;2023-07-22T15:22:12;98498.09;;;19.88;50.66
75549;BME280;64133;56.002;37.208;2023-07-22T15:27:25;98495.62;;;19.99;50.79
75549;BME280;64133;56.002;37.208;2023-07-22T15:32:33;98496.95;;;19.79;50.91
75549;BME280;64133;56.002;37.208;2023-07-22T15:44:09;98500.10;;;19.39;52.33
75549;BME280;64133;56.002;37.208;2023-07-22T15:49:27;98495.18;;;19.43;51.54
75549;BME280;64133;56.002;37.208;2023-07-22T15:54:34;98498.84;;;19.28;51.81
75549;BME280;64133;56.002;37.208;2023-07-22T15:59:57;98488.50;;;19.43;51.60
75549;BME280;64133;56.002;37.208;2023-07-22T16:05:06;98485.20;;;19.41;51.39
75549;BME280;64133;56.002;37.208;2023-07-22T16:15:31;98478.41;;;20.11;50.34
75549;BME280;64133;56.002;37.208;2023-07-22T16:20:51;98487.84;;;23.66;43.81
75549;BME280;64133;56.002;37.208;2023-07-22T16:25:59;98474.63;;;28.20;37.25
75549;BME280;64133;56.002;37.208;2023-07-22T16:31:06;98486.27;;;29.57;35.16
75549;BME280;64133;56.002;37.208;2023-07-22T16:36:16;98483.84;;;28.67;34.74
75549;BME280;64133;56.002;37.208;2023-07-22T16:41:24;98484.14;;;27.83;35.73
75549;BME280;64133;56.002;37.208;2023-07-22T16:46:28;98494.41;;;22.71;42.40
75549;BME280;64133;56.002;37.208;2023-07-22T16:51:33;98494.24;;;21.29;44.81
75549;BME280;64133;56.002;37.208;2023-07-22T16:56:51;98493.09;;;20.73;45.83
75549;BME280;64133;56.002;37.208;2023-07-22T17:01:53;98489.36;;;20.52;46.49
75549;BME280;64133;56.002;37.208;2023-07-22T17:07:16;98483.28;;;20.41;46.83
75549;BME280;64133;56.002;37.208;2023-07-22T17:12:42;98481.08;;;20.18;47.40
75549;BME280;64133;56.002;37.208;2023-07-22T18:06:59;98500.60;;;18.47;52.40
75549;BME280;64133;56.002;37.208;2023-07-22T18:12:05;98499.81;;;18.18;52.66
75549;BME280;64133;56.002;37.208;2023-07-22T18:17:10;98504.45;;;18.20;52.96
75549;BME280;64133;56.002;37.208;2023-07-22T18:22:15;98502.91;;;18.04;53.59
75549;BME280;64133;56.002;37.208;2023-07-22T18:27:20;98495.44;;;17.93;54.14
75549;BME280;64133;56.002;37.208;2023-07-22T18:32:24;98500.66;;;17.91;54.42
75549;BME280;64133;56.002;37.208;2023-07-22T18:37:35;98491.03;;;17.79;55.15
75549;BME280;64133;56.002;37.208;2023-07-22T18:42:52;98505.48;;;17.80;55.37
75549;BME280;64133;56.002;37.208;2023-07-22T19:12:22;98504.09;;;17.09;57.64
75549;BME280;64133;56.002;37.208;2023-07-22T19:32:51;98498.66;;;17.07;59.09
75549;BME280;64133;56.002;37.208;2023-07-22T19:38:04;98499.80;;;16.72;59.03
75549;BME280;64133;56.002;37.208;2023-07-22T20:32:20;98507.56;;;16.15;62.10
75549;BME280;64133;56.002;37.208;2023-07-22T20:37:25;98502.88;;;16.02;62.44
75549;BME280;64133;56.002;37.208;2023-07-22T20:42:30;98504.44;;;15.96;62.48
75549;BME280;64133;56.002;37.208;2023-07-22T20:47:35;98505.09;;;15.79;63.33
75549;BME280;64133;56.002;37.208;2023-07-22T20:52:42;98504.74;;;15.82;63.70
75549;BME280;64133;56.002;37.208;2023-07-22T20:57:47;98511.31;;;15.91;63.63
75549;BME280;64133;56.002;37.208;2023-07-22T21:02:52;98504.31;;;15.94;63.34
75549;BME280;64133;56.002;37.208;2023-07-22T21:08:01;98503.77;;;15.79;63.48
75549;BME280;64133;56.002;37.208;2023-07-22T21:13:08;98500.45;;;15.96;63.07
75549;BME280;64133;56.002;37.208;2023-07-22T21:18:13;98508.33;;;15.71;63.96
75549;BME280;64133;56.002;37.208;2023-07-22T21:23:19;98503.42;;;15.97;63.14
75549;BME280;64133;56.002;37.208;2023-07-22T21:28:24;98510.41;;;15.98;63.08
75549;BME280;64133;56.002;37.208;2023-07-22T21:33:29;98500.84;;;16.08;62.56
75549;BME280;64133;56.002;37.208;2023-07-22T21:38:34;98509.25;;;15.97;62.82
75549;BME280;64133;56.002;37.208;2023-07-22T21:43:43;98512.94;;;15.77;63.56
75549;BME280;64133;56.002;37.208;2023-07-22T21:48:48;98515.19;;;15.61;64.15
75549;BME280;64133;56.002;37.208;2023-07-22T21:53:53;98487.50;;;15.59;63.79
75549;BME280;64133;56.002;37.208;2023-07-22T21:58:58;98502.83;;;15.49;64.78
75549;BME280;64133;56.002;37.208;2023-07-22T22:04:03;98500.20;;;15.45;65.05
75549;BME280;64133;56.002;37.208;2023-07-22T22:09:09;98495.20;;;15.27;65.73
75549;BME280;64133;56.002;37.208;2023-07-22T22:14:14;98492.55;;;15.27;66.08
75549;BME280;64133;56.002;37.208;2023-07-22T22:19:25;98494.41;;;15.00;66.57
75549;BME280;64133;56.002;37.208;2023-07-22T22:24:30;98496.98;;;15.12;66.23
75549;BME280;64133;56.002;37.208;2023-07-22T22:29:35;98501.24;;;14.94;67.24
75549;BME280;64133;56.002;37.208;2023-07-22T22:34:43;98499.52;;;15.01;67.07
75549;BME280;64133;56.002;37.208;2023-07-22T22:39:50;98491.89;;;15.06;66.61
75549;BME280;64133;56.002;37.208;2023-07-22T22:44:56;98502.15;;;15.05;66.55
75549;BME280;64133;56.002;37.208;2023-07-22T22:50:04;98495.81;;;15.11;66.39
75549;BME280;64133;56.002;37.208;2023-07-22T22:55:09;98497.30;;;15.13;66.10
75549;BME280;64133;56.002;37.208;2023-07-22T23:00:18;98490.30;;;15.20;65.90
75549;BME280;64133;56.002;37.208;2023-07-22T23:05:23;98492.50;;;15.13;65.67
75549;BME280;64133;56.002;37.208;2023-07-22T23:10:28;98490.08;;;15.03;66.11
75549;BME280;64133;56.002;37.208;2023-07-22T23:15:33;98492.06;;;15.01;66.41
75549;BME280;64133;56.002;37.208;2023-07-22T23:20:37;98491.75;;;15.00;66.25
75549;BME280;64133;56.002;37.208;2023-07-22T23:25:42;98471.56;;;14.95;66.10
75549;BME280;64133;56.002;37.208;2023-07-22T23:30:47;98490.66;;;14.90;66.66
75549;BME280;64133;56.002;37.208;2023-07-22T23:35:53;98481.41;;;15.09;66.23
75549;BME280;64133;56.002;37.208;2023-07-22T23:40:58;98482.05;;;15.15;65.95
75549;BME280;64133;56.002;37.208;2023-07-22T23:46:03;98475.81;;;15.04;66.26
75549;BME280;64133;56.002;37.208;2023-07-22T23:51:08;98478.83;;;14.97;66.60
75549;BME280;64133;56.002;37.208;2023-07-22T23:56:13;98479.41;;;14.84;67.28
